Flugplatz Finsterwalde/Heinrichsruh

Für EDAS sind keine METAR/TAF Berichte vorhanden.
Es werden die Flugwettermeldungen vom Flugplatz Holzdorf Airport in 37 km Entfernung angezeigt.

Bericht für ETSH

vom 30.09. um 21:20 UTC

Wind 1 kt aus 120°

Sichtweite 10 km oder mehr

flacher Bodennebel

Temperatur 6.0°C

Taupunkt 5.0°C

Luftfeuchtigkeit 93%

Luftdruck 1011 hPa

ETSH 302120Z 12001KT 9999 MIFG 06/05 Q1011 BLU+
Keine Prognose (TAF) verfügbar.
Impressum